Terminal Aerodrome Forecast
Issued by NWS

Home | Current Version | Previous Version | Text Only | Print | Product List | Glossary On
Versions: 1 2 3 4 5 6 7 8 9 10 11 12 13 14 15 16 17 18 19 20
560
FTUS43 KIND 240306 AAA
TAFHUF
TAF AMD
KHUF 240306Z 2403/2424 30005KT P6SM SCT040
      TEMPO 2403/2404 3SM +TSRA BR OVC020CB
     FM240400 VRB03KT P6SM FEW250
     FM241100 33004KT 4SM BR FEW140
     FM241300 35005KT P6SM FEW150=

USA.gov is the U.S. government's official web portal to all federal, state and local government web resources and services.